createdAt,value
2023-01-23T00:01:20.847Z,81.40
2023-01-23T00:03:48.273Z,81.40
2023-01-23T00:06:16.893Z,81.69
2023-01-23T00:08:47.421Z,81.51
2023-01-23T00:11:19.916Z,81.61
2023-01-23T00:13:47.141Z,81.70
2023-01-23T00:16:17.090Z,81.71
2023-01-23T00:18:44.397Z,81.25
2023-01-23T00:21:13.948Z,81.15
2023-01-23T00:23:49.611Z,80.82
2023-01-23T00:26:19.619Z,80.72
2023-01-23T00:28:47.515Z,80.69
2023-01-23T00:31:24.950Z,80.92
2023-01-23T00:34:00.861Z,80.87
2023-01-23T00:36:33.419Z,80.89
2023-01-23T00:39:00.677Z,81.27
2023-01-23T00:41:27.946Z,81.25
2023-01-23T00:43:55.303Z,81.51
2023-01-23T00:46:23.467Z,81.30
2023-01-23T00:48:51.213Z,81.58
2023-01-23T00:51:19.257Z,81.47
2023-01-23T00:53:47.448Z,81.62
2023-01-23T00:56:14.480Z,81.61
2023-01-23T00:58:44.125Z,81.43
2023-01-23T01:01:14.009Z,81.35
2023-01-23T01:03:41.730Z,81.05
2023-01-23T01:06:09.899Z,81.15
2023-01-23T01:08:36.950Z,81.23
2023-01-23T01:11:04.632Z,81.13
2023-01-23T01:13:31.739Z,80.87
2023-01-23T01:16:01.999Z,80.60
2023-01-23T01:18:29.874Z,80.62
2023-01-23T01:20:57.837Z,80.60
2023-01-23T01:23:25.237Z,81.04
2023-01-23T01:25:52.396Z,80.77
2023-01-23T01:28:21.207Z,80.72
2023-01-23T01:30:48.265Z,80.97
2023-01-23T01:33:15.328Z,80.84
2023-01-23T01:35:42.454Z,80.73
2023-01-23T01:38:09.573Z,80.93
2023-01-23T01:40:37.359Z,80.78
2023-01-23T01:43:08.871Z,80.92
2023-01-23T01:46:01.447Z,80.91
2023-01-23T01:48:52.169Z,80.94
2023-01-23T01:51:52.170Z,81.34
2023-01-23T01:54:31.432Z,81.54
2023-01-23T01:57:21.199Z,81.74
2023-01-23T02:00:03.986Z,82.16
2023-01-23T02:02:45.755Z,82.47
2023-01-23T02:05:17.050Z,82.21
2023-01-23T02:07:54.523Z,82.47
2023-01-23T02:10:22.858Z,82.55
2023-01-23T02:12:52.225Z,82.70
2023-01-23T02:15:22.386Z,83.01
2023-01-23T02:17:53.121Z,83.25
2023-01-23T02:20:40.097Z,82.59
2023-01-23T02:23:38.991Z,82.71
2023-01-23T02:26:12.672Z,82.68
2023-01-23T02:28:48.667Z,82.96
2023-01-23T02:31:20.338Z,83.02
2023-01-23T02:33:55.987Z,83.28
2023-01-23T02:36:26.892Z,83.73
2023-01-23T02:39:03.505Z,83.52
2023-01-23T02:41:41.625Z,83.84
2023-01-23T02:44:17.522Z,84.03
2023-01-23T02:46:50.001Z,84.48
2023-01-23T02:49:17.400Z,84.50
2023-01-23T02:51:44.461Z,84.55
2023-01-23T02:54:11.531Z,84.85
2023-01-23T02:56:38.871Z,84.77
2023-01-23T02:59:24.542Z,84.59
2023-01-23T03:01:51.581Z,84.94
2023-01-23T03:04:19.808Z,85.37
2023-01-23T03:06:46.738Z,85.68
2023-01-23T03:09:17.003Z,85.68
2023-01-23T03:11:46.642Z,85.63
2023-01-23T03:14:18.099Z,85.80
2023-01-23T03:16:50.313Z,85.38
2023-01-23T03:19:23.369Z,85.16
2023-01-23T03:21:51.299Z,84.72
2023-01-23T03:24:19.743Z,84.59
2023-01-23T03:26:48.290Z,84.77
2023-01-23T03:29:36.744Z,84.71
2023-01-23T03:32:05.171Z,84.55
2023-01-23T03:34:32.769Z,83.95
2023-01-23T03:37:01.355Z,84.21
2023-01-23T03:39:48.954Z,84.15
2023-01-23T03:42:20.596Z,84.15
2023-01-23T03:44:49.610Z,84.36
2023-01-23T03:47:18.614Z,84.57
2023-01-23T03:49:45.831Z,84.56
2023-01-23T03:52:13.057Z,84.86
2023-01-23T03:54:40.308Z,85.00
2023-01-23T03:57:09.804Z,85.01
2023-01-23T04:00:03.872Z,84.71
2023-01-23T04:02:41.462Z,84.87
2023-01-23T04:05:10.868Z,84.83
2023-01-23T04:07:38.532Z,84.85
2023-01-23T04:10:05.534Z,85.01
2023-01-23T04:12:32.811Z,85.13
2023-01-23T04:15:00.286Z,85.26
2023-01-23T04:17:30.062Z,85.20
2023-01-23T04:19:57.476Z,85.15
2023-01-23T04:22:24.431Z,84.86
2023-01-23T04:24:51.656Z,84.49
2023-01-23T04:27:19.452Z,84.16
2023-01-23T04:29:48.009Z,84.07
2023-01-23T04:32:15.016Z,84.02
2023-01-23T04:34:45.895Z,83.69
2023-01-23T04:37:13.137Z,83.62
2023-01-23T04:39:40.949Z,83.11
2023-01-23T04:42:08.470Z,83.01
2023-01-23T04:44:58.111Z,83.02
2023-01-23T04:47:45.100Z,82.61
2023-01-23T04:50:14.735Z,82.77
2023-01-23T04:52:45.395Z,82.93
2023-01-23T04:55:13.892Z,83.19
2023-01-23T04:57:41.438Z,83.30
2023-01-23T05:00:34.485Z,83.75
2023-01-23T05:03:03.646Z,83.89
2023-01-23T05:05:33.135Z,84.05
2023-01-23T05:08:01.475Z,84.15
2023-01-23T05:10:30.124Z,84.60
2023-01-23T05:13:02.839Z,84.80
2023-01-23T05:15:30.996Z,84.73
2023-01-23T05:17:58.163Z,85.05
2023-01-23T05:20:25.239Z,84.97
2023-01-23T05:22:54.013Z,84.93
2023-01-23T05:25:29.169Z,84.65
2023-01-23T05:27:58.303Z,84.64
2023-01-23T05:30:26.152Z,84.77
2023-01-23T05:33:01.812Z,84.49
2023-01-23T05:35:29.129Z,84.27
2023-01-23T05:37:56.395Z,84.03
2023-01-23T05:40:25.345Z,84.01
2023-01-23T05:43:16.670Z,83.54
2023-01-23T05:46:02.700Z,83.38
2023-01-23T05:48:52.034Z,83.17
2023-01-23T05:51:21.191Z,83.00
2023-01-23T05:53:48.914Z,82.67
2023-01-23T05:56:17.432Z,82.12
2023-01-23T05:59:09.645Z,82.22
2023-01-23T06:01:42.819Z,82.10
2023-01-23T06:04:30.242Z,81.95
2023-01-23T06:07:18.732Z,81.66
2023-01-23T06:09:47.723Z,81.17
2023-01-23T06:12:15.148Z,80.83
2023-01-23T06:14:42.217Z,80.51
2023-01-23T06:17:15.560Z,80.47
2023-01-23T06:19:43.213Z,80.59
2023-01-23T06:22:11.123Z,80.54
2023-01-23T06:24:56.498Z,80.39
2023-01-23T06:27:23.993Z,80.37
2023-01-23T06:29:52.505Z,80.46
2023-01-23T06:32:20.246Z,80.77
2023-01-23T06:34:48.173Z,80.81
2023-01-23T06:37:15.486Z,81.07
2023-01-23T06:39:44.588Z,81.33
2023-01-23T06:42:14.859Z,81.72
2023-01-23T06:44:45.935Z,82.11
2023-01-23T06:47:14.161Z,82.23
2023-01-23T06:49:43.775Z,82.39
2023-01-23T06:52:11.272Z,82.91
2023-01-23T06:54:38.232Z,83.46
2023-01-23T06:57:06.456Z,83.95
2023-01-23T06:59:34.469Z,84.32
2023-01-23T07:02:03.665Z,84.45
2023-01-23T07:04:53.760Z,85.17
2023-01-23T07:07:21.075Z,85.40
2023-01-23T07:09:49.832Z,85.73
2023-01-23T07:12:23.483Z,85.54
2023-01-23T07:14:50.667Z,85.71
2023-01-23T07:17:23.273Z,85.48
2023-01-23T07:19:51.618Z,85.49
2023-01-23T07:22:21.429Z,85.65
2023-01-23T07:24:48.672Z,85.95
2023-01-23T07:27:16.239Z,85.91
2023-01-23T07:29:43.400Z,86.15
2023-01-23T07:32:11.321Z,86.58
2023-01-23T07:34:38.724Z,86.80
2023-01-23T07:37:06.019Z,87.09
2023-01-23T07:39:32.958Z,87.12
2023-01-23T07:42:00.182Z,87.39
2023-01-23T07:44:28.792Z,87.88
2023-01-23T07:46:56.728Z,87.81
2023-01-23T07:49:23.635Z,87.93
2023-01-23T07:51:50.863Z,87.80
2023-01-23T07:54:17.793Z,87.78
2023-01-23T07:56:44.768Z,87.33
2023-01-23T07:59:13.130Z,87.51
2023-01-23T08:01:40.148Z,87.16
2023-01-23T08:04:07.360Z,86.74
2023-01-23T08:06:34.533Z,87.01
2023-01-23T08:09:01.676Z,86.99
2023-01-23T08:11:28.817Z,85.60
2023-01-23T08:13:55.639Z,85.34
2023-01-23T08:16:22.852Z,84.86
2023-01-23T08:18:50.046Z,84.15
2023-01-23T08:21:17.135Z,83.80
2023-01-23T08:23:45.050Z,83.63
2023-01-23T08:26:14.720Z,83.30
2023-01-23T08:28:43.316Z,82.73
2023-01-23T08:31:12.516Z,82.93
2023-01-23T08:33:39.955Z,81.73
2023-01-23T08:36:11.034Z,81.81
2023-01-23T08:38:38.626Z,81.56
2023-01-23T08:41:06.507Z,81.29
2023-01-23T08:43:33.543Z,81.32
2023-01-23T08:46:00.970Z,80.62
2023-01-23T08:48:28.718Z,80.25
2023-01-23T08:51:02.231Z,80.26
2023-01-23T08:53:30.374Z,79.84
2023-01-23T08:56:06.302Z,79.65
2023-01-23T08:58:33.662Z,79.66
2023-01-23T09:01:00.772Z,79.87
2023-01-23T09:03:28.847Z,79.48
2023-01-23T09:05:55.952Z,79.52
2023-01-23T09:08:22.988Z,79.44
2023-01-23T09:10:49.951Z,78.52
2023-01-23T09:13:19.713Z,78.43
2023-01-23T09:15:47.092Z,77.63
2023-01-23T09:18:14.123Z,78.15
2023-01-23T09:20:41.505Z,78.06
2023-01-23T09:23:08.577Z,77.87
2023-01-23T09:25:35.725Z,77.64
2023-01-23T09:28:02.738Z,77.14
2023-01-23T09:30:29.847Z,76.88
2023-01-23T09:32:56.773Z,76.89
2023-01-23T09:35:23.899Z,76.60
2023-01-23T09:38:01.996Z,77.28
2023-01-23T09:40:48.182Z,77.15
2023-01-23T09:43:27.203Z,77.28
2023-01-23T09:46:03.500Z,77.06
2023-01-23T09:48:36.833Z,76.93
2023-01-23T09:51:31.260Z,77.08
2023-01-23T09:54:14.439Z,77.53
2023-01-23T09:56:45.257Z,77.59
2023-01-23T09:59:35.513Z,77.78
2023-01-23T10:02:03.277Z,78.46
2023-01-23T10:04:31.804Z,78.79
2023-01-23T10:07:05.108Z,79.08
2023-01-23T10:09:40.572Z,79.54
2023-01-23T10:12:37.463Z,79.76
2023-01-23T10:15:16.234Z,80.80
2023-01-23T10:18:08.335Z,81.02
2023-01-23T10:20:54.297Z,81.41
2023-01-23T10:23:24.149Z,81.46
2023-01-23T10:25:51.730Z,81.83
2023-01-23T10:28:38.930Z,82.24
2023-01-23T10:31:20.134Z,82.30
2023-01-23T10:34:03.551Z,83.01
2023-01-23T10:36:54.104Z,82.99
2023-01-23T10:39:43.295Z,83.65
2023-01-23T10:42:14.181Z,84.04
2023-01-23T10:44:41.279Z,84.20
2023-01-23T10:47:32.807Z,84.37
2023-01-23T10:50:00.568Z,85.31
2023-01-23T10:52:53.731Z,85.69
2023-01-23T10:55:20.977Z,86.08
2023-01-23T10:57:50.051Z,85.89
2023-01-23T11:00:36.770Z,85.77
2023-01-23T11:03:22.017Z,86.03
2023-01-23T11:05:53.429Z,86.13
2023-01-23T11:08:25.113Z,86.46
2023-01-23T11:10:52.211Z,86.95
2023-01-23T11:13:30.550Z,86.47
2023-01-23T11:15:57.913Z,87.59
2023-01-23T11:18:42.645Z,87.12
2023-01-23T11:21:32.703Z,86.93
2023-01-23T11:24:37.851Z,86.55
2023-01-23T11:27:20.474Z,86.72
2023-01-23T11:29:50.400Z,86.88
2023-01-23T11:32:17.502Z,87.25
2023-01-23T11:34:51.341Z,87.29
2023-01-23T11:37:28.662Z,87.80
2023-01-23T11:40:01.810Z,88.32
2023-01-23T11:42:30.379Z,88.03
2023-01-23T11:45:01.377Z,88.80
2023-01-23T11:47:37.357Z,88.77
2023-01-23T11:50:27.296Z,89.19
2023-01-23T11:53:05.659Z,89.27
2023-01-23T11:56:03.612Z,89.15
2023-01-23T11:58:51.855Z,89.21
2023-01-23T12:01:49.358Z,88.64
2023-01-23T12:04:35.403Z,88.78
2023-01-23T12:07:18.422Z,89.32
2023-01-23T12:10:05.681Z,88.94
2023-01-23T12:12:40.878Z,89.65
2023-01-23T12:16:02.157Z,89.48
2023-01-23T12:18:59.075Z,89.86
2023-01-23T12:21:44.358Z,89.85
2023-01-23T12:24:18.896Z,90.19
2023-01-23T12:27:01.820Z,89.77
2023-01-23T12:30:06.676Z,89.86
2023-01-23T12:32:51.957Z,90.27
2023-01-23T12:35:19.106Z,90.17
2023-01-23T12:38:11.708Z,89.60
2023-01-23T12:40:46.535Z,89.74
2023-01-23T12:43:19.589Z,89.64
2023-01-23T12:46:06.156Z,89.38
2023-01-23T12:48:41.124Z,88.87
2023-01-23T12:51:18.901Z,89.41
2023-01-23T12:53:51.529Z,88.95
2023-01-23T12:56:24.344Z,88.57
2023-01-23T12:59:09.559Z,88.64
2023-01-23T13:01:55.553Z,88.34
2023-01-23T13:04:58.069Z,88.46
2023-01-23T13:07:51.211Z,88.48
2023-01-23T13:11:03.974Z,88.64
2023-01-23T13:13:31.765Z,88.63
2023-01-23T13:16:11.718Z,88.78
2023-01-23T13:18:58.496Z,88.90
2023-01-23T13:21:44.181Z,88.67
2023-01-23T13:25:04.517Z,88.84
2023-01-23T13:27:55.918Z,89.01
2023-01-23T13:30:23.448Z,89.45
2023-01-23T13:32:51.976Z,88.98
2023-01-23T13:35:53.095Z,89.63
2023-01-23T13:38:23.113Z,89.68
2023-01-23T13:41:05.249Z,90.00
2023-01-23T13:43:51.302Z,90.15
2023-01-23T14:21:42.660Z,91.89
2023-01-23T14:27:51.286Z,92.09
2023-01-23T14:30:24.843Z,92.78
2023-01-23T14:32:52.409Z,92.61
2023-01-23T14:35:31.643Z,92.90
2023-01-23T14:38:08.044Z,93.25
2023-01-23T14:40:49.216Z,93.20
2023-01-23T14:43:21.632Z,92.59
2023-01-23T14:45:55.744Z,92.52
2023-01-23T14:48:22.690Z,92.20
2023-01-23T14:50:49.763Z,91.91
2023-01-23T14:53:17.059Z,91.62
2023-01-23T14:55:47.520Z,91.59
2023-01-23T14:58:22.627Z,91.91
2023-01-23T15:00:51.086Z,92.35
2023-01-23T15:03:38.585Z,91.90
2023-01-23T15:06:20.692Z,91.94
2023-01-23T15:08:48.841Z,91.81
2023-01-23T15:11:17.972Z,92.04
2023-01-23T15:14:01.528Z,91.45
2023-01-23T15:16:34.172Z,90.89
2023-01-23T15:19:21.054Z,91.13
2023-01-23T15:21:48.664Z,90.81
2023-01-23T15:24:15.653Z,90.75
2023-01-23T15:27:00.136Z,90.56
2023-01-23T15:29:27.386Z,90.78
2023-01-23T15:31:55.801Z,90.79
2023-01-23T15:34:26.592Z,90.71
2023-01-23T15:37:11.763Z,90.06
2023-01-23T15:39:58.577Z,89.88
2023-01-23T15:42:35.843Z,89.73
2023-01-23T15:45:03.954Z,89.72
2023-01-23T15:47:32.381Z,89.70
2023-01-23T15:50:03.172Z,89.39
2023-01-23T15:52:44.944Z,89.66
2023-01-23T15:55:13.029Z,89.30
2023-01-23T15:57:40.229Z,89.25
2023-01-23T16:00:17.782Z,89.19
2023-01-23T16:02:55.696Z,88.92
2023-01-23T16:05:26.659Z,88.59
2023-01-23T16:07:55.325Z,87.74
2023-01-23T16:10:23.395Z,87.89
2023-01-23T16:12:52.942Z,87.88
2023-01-23T16:15:25.216Z,87.18
2023-01-23T16:17:52.886Z,87.02
2023-01-23T16:20:29.132Z,86.71
2023-01-23T16:23:01.873Z,86.35
2023-01-23T16:25:45.714Z,86.18
2023-01-23T16:28:21.836Z,86.12
2023-01-23T16:30:50.944Z,85.55
2023-01-23T16:33:18.548Z,85.85
2023-01-23T16:35:46.762Z,85.11
2023-01-23T16:38:29.014Z,85.07
2023-01-23T16:40:59.722Z,85.58
2023-01-23T16:43:27.641Z,85.13
2023-01-23T16:45:56.583Z,85.31
2023-01-23T16:48:27.526Z,85.35
2023-01-23T16:51:00.953Z,85.43
2023-01-23T16:53:31.805Z,85.10
2023-01-23T16:56:01.348Z,85.33
2023-01-23T16:58:32.972Z,85.47
2023-01-23T17:01:08.440Z,85.51
2023-01-23T17:03:38.393Z,85.65
2023-01-23T17:06:05.581Z,85.58
2023-01-23T17:08:33.700Z,85.84
2023-01-23T17:11:04.790Z,86.18
2023-01-23T17:13:35.060Z,86.04
2023-01-23T17:16:07.328Z,85.63
2023-01-23T17:18:38.160Z,86.09
2023-01-23T17:21:05.928Z,86.16
2023-01-23T17:23:32.908Z,86.31
2023-01-23T17:26:01.611Z,86.05
2023-01-23T17:28:29.434Z,86.20
2023-01-23T17:31:00.616Z,85.90
2023-01-23T17:33:31.804Z,85.77
2023-01-23T17:36:03.395Z,85.59
2023-01-23T17:38:31.473Z,85.45
2023-01-23T17:40:58.471Z,85.71
2023-01-23T17:43:25.668Z,86.05
2023-01-23T17:45:53.443Z,86.35
2023-01-23T17:48:27.482Z,86.94
2023-01-23T17:50:54.980Z,87.25
2023-01-23T17:53:23.987Z,87.37
2023-01-23T17:55:52.893Z,87.71
2023-01-23T17:58:20.993Z,87.90
2023-01-23T18:00:51.117Z,88.09
2023-01-23T18:03:21.839Z,88.18
2023-01-23T18:05:49.497Z,88.28
2023-01-23T18:08:18.726Z,88.27
2023-01-23T18:10:49.542Z,88.56
2023-01-23T18:13:44.691Z,87.71
2023-01-23T18:16:20.376Z,87.90
2023-01-23T18:18:53.469Z,87.54
2023-01-23T18:21:20.989Z,87.60
2023-01-23T18:23:48.374Z,87.29
2023-01-23T18:26:33.924Z,87.67
2023-01-23T18:29:20.332Z,87.54
2023-01-23T18:32:06.149Z,87.48
2023-01-23T18:35:17.852Z,87.32
2023-01-23T18:37:51.460Z,87.43
2023-01-23T18:40:24.995Z,87.59
2023-01-23T18:43:18.739Z,87.71
2023-01-23T18:45:45.974Z,87.41
2023-01-23T18:48:25.062Z,87.13
2023-01-23T18:51:13.885Z,86.81
2023-01-23T18:53:52.098Z,87.01
2023-01-23T18:56:27.546Z,86.66
2023-01-23T18:59:14.457Z,86.97
2023-01-23T19:01:44.721Z,86.63
2023-01-23T19:04:16.500Z,86.38
2023-01-23T19:06:44.976Z,85.99
2023-01-23T19:09:19.126Z,85.71
2023-01-23T19:12:20.611Z,85.32
2023-01-23T19:15:03.199Z,84.99
2023-01-23T19:17:39.667Z,85.41
2023-01-23T19:20:28.835Z,84.87
2023-01-23T19:23:21.014Z,84.99
2023-01-23T19:25:48.358Z,84.89
2023-01-23T19:28:16.134Z,84.61
2023-01-23T19:30:43.664Z,84.42
2023-01-23T19:33:16.925Z,84.00
2023-01-23T19:35:45.314Z,84.17
2023-01-23T19:38:12.880Z,83.57
2023-01-23T19:40:40.091Z,82.81
2023-01-23T19:43:14.374Z,82.96
2023-01-23T19:45:43.519Z,82.65
2023-01-23T19:48:11.284Z,82.64
2023-01-23T19:50:39.103Z,82.17
2023-01-23T19:53:06.854Z,82.33
2023-01-23T19:55:37.122Z,82.24
2023-01-23T19:58:04.531Z,82.36
2023-01-23T20:00:33.388Z,82.79
2023-01-23T20:03:00.367Z,82.87
2023-01-23T20:05:27.412Z,83.29
2023-01-23T20:07:54.419Z,83.49
2023-01-23T20:10:22.368Z,83.60
2023-01-23T20:12:55.403Z,83.56
2023-01-23T20:15:25.109Z,83.42
2023-01-23T20:17:53.100Z,83.49
2023-01-23T20:20:20.724Z,83.01
2023-01-23T20:22:48.239Z,82.92
2023-01-23T20:25:17.079Z,82.56
2023-01-23T20:27:44.776Z,82.38
2023-01-23T20:30:15.581Z,81.99
2023-01-23T20:32:43.202Z,82.20
2023-01-23T20:35:11.138Z,81.92
2023-01-23T20:37:38.128Z,81.85
2023-01-23T20:40:06.163Z,81.46
2023-01-23T20:42:33.530Z,81.27
2023-01-23T20:45:00.523Z,81.50
2023-01-23T20:47:27.637Z,81.56
2023-01-23T20:49:54.730Z,81.36
2023-01-23T20:52:40.408Z,81.40
2023-01-23T20:55:07.945Z,81.18
2023-01-23T20:57:53.582Z,81.30
2023-01-23T21:00:20.849Z,81.21
2023-01-23T21:02:48.221Z,81.52
2023-01-23T21:05:15.139Z,81.74
2023-01-23T21:07:42.156Z,81.69
2023-01-23T21:10:09.750Z,81.65
2023-01-23T21:12:37.578Z,81.98
2023-01-23T21:15:05.028Z,81.87
2023-01-23T21:17:32.242Z,82.13
2023-01-23T21:19:59.435Z,82.02
2023-01-23T21:22:26.373Z,81.94
2023-01-23T21:24:53.628Z,81.72
2023-01-23T21:27:23.493Z,81.54
2023-01-23T21:29:51.621Z,81.79
2023-01-23T21:32:18.906Z,81.93
2023-01-23T21:34:46.159Z,81.94
2023-01-23T21:37:13.125Z,82.17
2023-01-23T21:39:40.229Z,82.00
2023-01-23T21:42:07.141Z,82.26
2023-01-23T21:44:35.690Z,82.34
2023-01-23T21:47:03.240Z,82.16
2023-01-23T21:49:31.499Z,81.96
2023-01-23T21:51:58.514Z,81.87
2023-01-23T21:54:25.656Z,82.22
2023-01-23T21:56:52.860Z,81.83
2023-01-23T21:59:20.003Z,81.89
2023-01-23T22:01:47.290Z,81.91
2023-01-23T22:04:18.606Z,81.84
2023-01-23T22:06:46.861Z,81.68
2023-01-23T22:09:18.521Z,81.83
2023-01-23T22:11:46.517Z,81.79
2023-01-23T22:14:13.897Z,82.12
2023-01-23T22:17:04.871Z,82.41
2023-01-23T22:19:32.101Z,82.40
2023-01-23T22:21:59.037Z,81.92
2023-01-23T22:24:26.223Z,81.62
2023-01-23T22:26:53.593Z,81.77
2023-01-23T22:29:22.840Z,81.84
2023-01-23T22:31:51.222Z,82.18
2023-01-23T22:34:18.624Z,82.13
2023-01-23T22:36:45.822Z,82.36
2023-01-23T22:39:16.257Z,82.77
2023-01-23T22:41:45.534Z,82.89
2023-01-23T22:44:13.535Z,82.91
2023-01-23T22:46:43.758Z,82.83
2023-01-23T22:49:11.346Z,82.81
2023-01-23T22:51:38.514Z,83.07
2023-01-23T22:54:06.163Z,83.23
2023-01-23T22:56:33.434Z,83.16
2023-01-23T22:59:01.833Z,83.02
2023-01-23T23:01:29.104Z,82.90
2023-01-23T23:03:58.001Z,83.08
2023-01-23T23:06:25.705Z,82.58
2023-01-23T23:08:52.877Z,82.64
2023-01-23T23:11:22.272Z,82.80
2023-01-23T23:13:49.890Z,82.65
2023-01-23T23:16:22.472Z,82.43
2023-01-23T23:18:52.430Z,82.09
2023-01-23T23:21:22.430Z,82.20
2023-01-23T23:23:50.338Z,82.22
2023-01-23T23:26:17.677Z,82.07
2023-01-23T23:28:45.106Z,82.13
2023-01-23T23:31:12.166Z,81.80
2023-01-23T23:33:39.296Z,81.56
2023-01-23T23:36:07.426Z,81.65
2023-01-23T23:38:34.576Z,81.52
2023-01-23T23:41:04.606Z,81.97
2023-01-23T23:43:32.024Z,81.82
2023-01-23T23:46:02.735Z,82.13
2023-01-23T23:48:31.572Z,82.28
2023-01-23T23:51:03.972Z,82.37
2023-01-23T23:53:31.397Z,82.33
2023-01-23T23:55:58.456Z,82.86
2023-01-23T23:58:25.654Z,82.82
